Bedford, Michigan
Current Conditions -  °F | °C
As of 7:53 PM on Thursday 27 Nov 2014 (Local Time) from KBTL Reporting Station
Overcast Overcast  
Wind Chill: -10°   Ceiling: 5000
Heat Index: -4°   Visibility: 10mi
Dew Point: -11°   Wind: 9mph
Humidity: 62%   Direction: 330°NNW
Pressure: 30.32"   Gusts: NA
Location:  42.4°N, 85.23°W
Report Text: KBTL 280053Z 33008KT 10SM OVC050 M04/M11 A3032 RMK AO2 SLP279 T10441106 $
Loading
Personal Weather Stations






























Interactive Weather Map New forecast layout! Learn more

10-Day Weather Forecast

Advertisements
Track Severe Weather on mobile